Time;durP1;ratioP1;P1;durP2;ratioP2;P2;SDS_P1;SDS_P2;PMS_P1;PMS_P2;Temp;Humidity;BMP_temperature;BMP_pressure;BME280_temperature;BME280_humidity;BME280_pressure;Samples;Min_cycle;Max_cycle;Signal;HPM_P1;HPM_P2
2022/12/22 03:26:28;;;;;;;43.10;17.00;;;;;;;-1.84;96.67;97203.97;4984911;28;20469;-54
2022/12/22 03:28:55;;;;;;;26.52;12.23;;;;;;;-1.80;95.73;97205.81;4999704;28;20576;-58
2022/12/22 03:31:21;;;;;;;38.95;15.88;;;;;;;-1.98;95.14;97187.56;4983134;28;20576;-54
2022/12/22 03:33:48;;;;;;;44.13;22.77;;;;;;;-1.85;95.41;97214.03;4984617;28;20055;-54
2022/12/22 03:36:15;;;;;;;36.85;17.70;;;;;;;-1.79;94.43;97223.72;4999640;28;20086;-54
2022/12/22 03:38:41;;;;;;;28.77;12.25;;;;;;;-1.91;94.43;97215.16;4984860;28;20137;-54
2022/12/22 03:46:28;;;;;;;21.90;9.95;;;;;;;-1.97;94.78;97210.91;4984933;28;20112;-53
2022/12/22 03:46:39;;;;;;;21.05;9.00;;;;;;;-2.03;95.11;97212.03;5007937;28;20050;-55
2022/12/22 03:49:09;;;;;;;20.65;8.30;;;;;;;-2.04;94.71;97207.69;5006347;28;20049;-58
2022/12/22 03:51:40;;;;;;;20.92;9.52;;;;;;;-2.08;94.09;97209.38;5007647;28;20164;-53
2022/12/22 03:54:08;;;;;;;34.53;14.40;;;;;;;-4.55;93.97;96826.31;5007571;28;20057;-56
2022/12/22 03:56:35;;;;;;;36.60;15.30;;;;;;;-2.86;94.72;97082.38;5005931;28;20504;-59
2022/12/22 03:59:02;;;;;;;37.25;16.48;;;;;;;-2.99;94.09;97045.91;5007509;28;20085;-58
2022/12/22 04:01:28;;;;;;;49.05;17.48;;;;;;;-2.02;94.40;97207.41;5005941;28;20053;-58
2022/12/22 04:03:55;;;;;;;37.88;14.50;;;;;;;-2.45;94.39;97146.78;5007607;28;20513;-59
2022/12/22 04:06:22;;;;;;;47.20;16.17;;;;;;;-2.05;93.33;97203.38;5007314;28;20461;-59
2022/12/22 04:08:49;;;;;;;42.67;15.93;;;;;;;-2.09;93.55;97206.94;5005941;28;20141;-58
2022/12/22 04:14:02;;;;;;;30.95;13.23;;;;;;;-2.11;94.16;97206.41;5007654;28;20111;-58
2022/12/22 04:16:29;;;;;;;20.50;10.57;;;;;;;-2.07;94.16;97215.63;5007021;28;20096;-54
2022/12/22 04:18:56;;;;;;;25.08;11.27;;;;;;;-2.09;94.16;97207.78;5005759;28;20046;-59
2022/12/22 04:21:23;;;;;;;48.40;18.02;;;;;;;-2.06;92.84;97211.81;5005971;28;20108;-54
2022/12/22 04:23:50;;;;;;;185.82;46.28;;;;;;;-2.13;92.97;97212.13;5007561;28;20119;-58
2022/12/22 04:26:24;;;;;;;230.75;58.00;;;;;;;-2.09;92.54;97201.53;5006911;28;20050;-55
2022/12/22 04:28:52;;;;;;;70.15;27.35;;;;;;;-2.21;92.42;97199.19;5007193;28;20500;-57
2022/12/22 04:31:20;;;;;;;43.50;15.23;;;;;;;-2.23;93.13;97209.50;5006699;28;20058;-57
2022/12/22 04:33:47;;;;;;;39.03;15.27;;;;;;;-2.24;93.89;97205.19;5007149;28;20053;-53
2022/12/22 04:36:15;;;;;;;39.25;15.05;;;;;;;-2.18;92.95;97195.91;5007358;28;20481;-58
2022/12/22 04:38:42;;;;;;;29.95;14.07;;;;;;;-2.61;91.50;97133.66;5006913;28;20115;-54
2022/12/22 04:41:09;;;;;;;29.15;14.07;;;;;;;-2.29;91.44;97197.09;5006491;28;20115;-58
2022/12/22 04:43:36;;;;;;;27.10;13.10;;;;;;;-2.69;92.14;97137.78;4987041;28;20097;-58
2022/12/22 04:46:02;;;;;;;25.60;10.70;;;;;;;-2.28;92.52;97209.56;4987125;28;20050;-53
2022/12/22 04:48:29;;;;;;;26.73;12.20;;;;;;;-2.64;92.51;97156.69;4987104;28;20054;-53
2022/12/22 04:50:58;;;;;;;16.60;7.97;;;;;;;-2.47;93.79;97176.09;4984836;28;20124;-53
2022/12/22 04:53:26;;;;;;;12.20;5.68;;;;;;;-2.46;94.60;97175.00;4986481;28;20484;-59
2022/12/22 04:56:03;;;;;;;17.25;6.60;;;;;;;-2.31;94.98;97199.25;4986208;28;20513;-57
2022/12/22 04:58:30;;;;;;;21.77;6.40;;;;;;;-2.26;94.92;97196.50;4986476;28;20161;-59
2022/12/22 05:00:56;;;;;;;13.45;5.68;;;;;;;-2.37;95.12;97199.63;4985125;28;20477;-55
2022/12/22 05:03:23;;;;;;;12.40;5.40;;;;;;;-2.40;96.25;97194.75;4985248;28;20058;-55
2022/12/22 05:05:50;;;;;;;17.20;5.75;;;;;;;-2.41;96.90;97193.94;4986118;28;20068;-53
2022/12/22 05:08:17;;;;;;;15.95;5.88;;;;;;;-2.40;97.49;97184.72;4986661;28;20273;-54
2022/12/22 05:10:44;;;;;;;12.10;6.40;;;;;;;-2.51;97.40;97161.47;4985956;28;20134;-54
2022/12/22 05:13:10;;;;;;;14.13;6.68;;;;;;;-2.27;96.36;97192.19;4986937;28;20058;-54
2022/12/22 05:15:37;;;;;;;12.68;6.07;;;;;;;-2.39;96.48;97180.91;4986535;28;20105;-58
2022/12/22 05:18:04;;;;;;;14.57;6.45;;;;;;;-2.35;96.85;97179.25;4986709;28;20908;-58
2022/12/22 05:20:31;;;;;;;14.07;7.70;;;;;;;-2.26;96.13;97185.66;4986084;28;20046;-53
2022/12/22 05:22:58;;;;;;;19.05;8.73;;;;;;;-2.63;95.37;97120.38;4986514;28;20105;-53
2022/12/22 05:25:25;;;;;;;13.93;7.97;;;;;;;-2.43;94.71;97152.72;4986295;28;20054;-57
2022/12/22 05:27:58;;;;;;;18.52;9.27;;;;;;;-2.27;93.75;97184.06;4986114;28;20494;-54
2022/12/22 05:30:25;;;;;;;22.88;10.43;;;;;;;-3.13;93.13;97055.78;4985909;28;20050;-53
2022/12/22 05:32:52;;;;;;;21.85;9.60;;;;;;;-2.28;93.54;97193.28;4986691;28;20449;-57
2022/12/22 05:35:18;;;;;;;18.60;8.65;;;;;;;-2.41;93.82;97166.81;4984879;28;20054;-58
2022/12/22 05:37:45;;;;;;;26.77;10.30;;;;;;;-2.27;93.22;97189.47;4984206;28;20579;-53
2022/12/22 05:40:11;;;;;;;54.28;17.85;;;;;;;-2.21;93.36;97188.31;4986245;28;20143;-58
2022/12/22 05:42:38;;;;;;;125.22;44.92;;;;;;;-2.16;93.44;97206.47;4996759;28;20116;-53
2022/12/22 05:45:07;;;;;;;140.98;49.10;;;;;;;-2.12;92.38;97192.03;5005091;28;20513;-55
2022/12/22 05:47:34;;;;;;;117.65;43.78;;;;;;;-2.25;91.70;97197.31;5005544;28;20100;-58
2022/12/22 05:50:01;;;;;;;138.65;54.50;;;;;;;-2.24;92.06;97201.66;5003861;28;20057;-58
2022/12/22 05:52:27;;;;;;;112.10;42.55;;;;;;;-2.27;91.77;97192.19;4989070;28;20050;-54
2022/12/22 05:54:54;;;;;;;231.15;66.45;;;;;;;-3.25;91.78;97047.19;4985787;28;20050;-53
2022/12/22 05:57:21;;;;;;;167.45;51.10;;;;;;;-2.41;91.79;97193.13;4985920;28;20054;-58
2022/12/22 05:59:49;;;;;;;78.38;30.42;;;;;;;-3.42;91.25;97041.38;4984473;28;20054;-53
2022/12/22 06:02:16;;;;;;;72.35;35.40;;;;;;;-2.76;91.12;97142.72;4985517;28;20116;-58
2022/12/22 06:04:43;;;;;;;50.20;23.38;;;;;;;-2.43;91.10;97179.84;4985051;28;20054;-58
2022/12/22 06:07:10;;;;;;;43.40;19.27;;;;;;;-2.41;92.19;97187.69;4985543;28;20077;-54
2022/12/22 06:09:36;;;;;;;31.17;12.20;;;;;;;-2.39;92.10;97197.19;4985286;28;20054;-59
2022/12/22 06:12:03;;;;;;;27.70;13.13;;;;;;;-2.99;92.19;97066.78;4983852;28;20050;-59
2022/12/22 06:14:30;;;;;;;57.95;19.30;;;;;;;-2.32;92.06;97208.50;4985137;28;20050;-54
2022/12/22 06:16:57;;;;;;;78.35;31.15;;;;;;;-2.35;92.38;97187.38;4983956;28;20058;-54
2022/12/22 06:19:24;;;;;;;71.20;27.10;;;;;;;-2.25;91.69;97176.44;4983835;28;20109;-60
2022/12/22 06:21:50;;;;;;;71.93;28.83;;;;;;;-2.06;92.51;97207.19;4983673;28;20136;-53
2022/12/22 06:24:17;;;;;;;55.33;22.45;;;;;;;-2.12;92.51;97180.41;4985030;28;20058;-58
2022/12/22 06:26:43;;;;;;;38.35;17.27;;;;;;;-2.17;92.51;97162.25;4983739;28;20560;-53
2022/12/22 06:29:10;;;;;;;31.05;13.63;;;;;;;-1.74;91.18;97210.09;4985472;28;20054;-54
2022/12/22 06:31:37;;;;;;;26.58;11.30;;;;;;;-1.59;91.34;97209.94;4983586;28;20096;-59
2022/12/22 06:34:04;;;;;;;31.90;13.73;;;;;;;-1.39;90.44;97210.81;4985326;28;20090;-54
2022/12/22 06:36:31;;;;;;;41.65;21.33;;;;;;;-1.30;90.46;97225.38;4983642;28;20066;-59
2022/12/22 06:38:57;;;;;;;65.70;27.27;;;;;;;-1.89;90.06;97120.72;4985375;28;20062;-55
2022/12/22 06:44:09;;;;;;;53.30;24.73;;;;;;;-0.89;88.42;97204.72;4985084;28;20492;-61
2022/12/22 06:46:36;;;;;;;67.88;33.42;;;;;;;-1.07;88.65;97172.88;4984804;28;20050;-55
2022/12/22 06:49:03;;;;;;;48.42;24.48;;;;;;;-0.64;88.98;97207.06;4985669;28;20057;-55
2022/12/22 06:51:29;;;;;;;52.53;20.98;;;;;;;-0.53;88.39;97219.41;4984727;28;20062;-60
2022/12/22 06:53:56;;;;;;;52.90;25.83;;;;;;;-0.39;88.08;97204.75;4985116;28;20050;-60
2022/12/22 06:56:22;;;;;;;50.35;22.25;;;;;;;-0.19;88.42;97214.53;4999305;28;20540;-55
2022/12/22 06:58:49;;;;;;;62.78;28.98;;;;;;;-0.46;87.59;97133.59;4989076;28;20137;-61
2022/12/22 07:01:15;;;;;;;78.97;35.90;;;;;;;0.26;87.09;97213.72;4997760;28;20081;-58
2022/12/22 07:03:42;;;;;;;58.45;28.08;;;;;;;0.29;87.08;97194.03;4992517;28;20093;-58
2022/12/22 07:06:09;;;;;;;65.70;28.40;;;;;;;0.41;86.08;97188.09;5002443;28;20062;-57
2022/12/22 07:08:36;;;;;;;60.47;28.42;;;;;;;0.63;84.14;97202.66;4998148;28;20061;-57
2022/12/22 07:11:02;;;;;;;49.00;21.20;;;;;;;0.63;80.80;97216.28;4999816;28;20045;-56
2022/12/22 07:13:32;;;;;;;37.92;16.60;;;;;;;0.18;83.51;97198.06;5001504;28;20085;-56
2022/12/22 07:16:01;;;;;;;62.38;27.30;;;;;;;0.66;83.32;97226.56;5003847;28;20133;-58
2022/12/22 07:18:31;;;;;;;51.05;23.42;;;;;;;0.57;83.28;97206.56;4992201;28;20061;-57
2022/12/22 07:20:59;;;;;;;85.28;39.70;;;;;;;0.47;83.20;97174.09;4987686;28;20107;-56
2022/12/22 07:23:27;;;;;;;53.35;26.02;;;;;;;1.08;83.30;97228.97;4988146;28;20607;-56
2022/12/22 07:25:54;;;;;;;59.80;23.88;;;;;;;1.21;82.01;97227.34;4990922;28;20570;-57
2022/12/22 07:28:20;;;;;;;62.20;27.67;;;;;;;1.40;81.04;97219.81;4988223;28;20050;-59
2022/12/22 07:30:48;;;;;;;70.55;37.88;;;;;;;1.15;80.50;97153.00;4985772;28;20526;-56
2022/12/22 07:33:15;;;;;;;63.47;27.67;;;;;;;1.64;79.79;97225.00;4987781;28;20515;-57
2022/12/22 07:35:42;;;;;;;39.88;20.02;;;;;;;1.21;78.73;97157.22;4985706;28;20457;-56
2022/12/22 07:38:08;;;;;;;27.45;13.18;;;;;;;0.67;78.57;97045.56;4998386;28;20049;-59
2022/12/22 07:40:35;;;;;;;26.48;13.93;;;;;;;1.96;78.91;97228.28;5006418;28;20052;-56
2022/12/22 07:43:07;;;;;;;15.63;8.07;;;;;;;2.09;79.17;97243.81;5007044;28;20054;-57
2022/12/22 07:45:34;;;;;;;17.85;10.45;;;;;;;1.95;78.95;97195.81;5001251;28;20050;-59
2022/12/22 07:50:23;;;;;;;19.92;9.95;;;;;;;2.37;78.52;97233.56;4988867;28;20088;-57
2022/12/22 07:50:48;;;;;;;19.70;11.00;;;;;;;2.02;76.21;97166.16;5005340;28;20123;-62
2022/12/22 07:53:15;;;;;;;24.20;12.45;;;;;;;2.57;77.13;97227.53;4999538;28;20489;-61
2022/12/22 07:55:42;;;;;;;24.70;12.95;;;;;;;2.63;75.64;97209.88;4987288;28;20547;-60
2022/12/22 07:58:08;;;;;;;22.15;12.18;;;;;;;-0.01;75.27;96769.91;4993439;28;20050;-57
2022/12/22 08:00:35;;;;;;;31.40;17.08;;;;;;;2.92;75.37;97207.41;5005212;28;20089;-56
2022/12/22 08:03:02;;;;;;;29.83;15.43;;;;;;;2.61;75.49;97124.59;5007120;28;20112;-59
2022/12/22 08:05:29;;;;;;;37.78;20.80;;;;;;;3.44;75.31;97211.88;5001518;28;20054;-56
2022/12/22 08:07:55;;;;;;;28.58;14.93;;;;;;;3.60;73.67;97213.03;5005314;28;20129;-58
2022/12/22 08:10:22;;;;;;;27.55;14.10;;;;;;;3.70;73.58;97215.41;4987849;28;20054;-56
2022/12/22 08:12:49;;;;;;;33.28;15.32;;;;;;;3.88;73.51;97213.50;4987578;28;20109;-59
2022/12/22 08:15:16;;;;;;;36.67;20.08;;;;;;;2.82;72.66;97033.47;4986708;28;20137;-56
2022/12/22 08:17:43;;;;;;;30.40;15.93;;;;;;;3.79;73.46;97161.47;4988041;28;20104;-62
2022/12/22 08:20:10;;;;;;;26.23;15.70;;;;;;;4.28;73.07;97201.97;4987640;28;20483;-57
2022/12/22 08:22:36;;;;;;;33.35;18.08;;;;;;;4.29;72.62;97214.56;4991268;28;20057;-55
2022/12/22 08:25:03;;;;;;;30.83;15.38;;;;;;;4.38;71.39;97196.16;5005675;28;20089;-57
2022/12/22 08:27:37;;;;;;;24.58;14.45;;;;;;;4.54;70.05;97210.16;4994778;28;20042;-57
2022/12/22 08:30:04;;;;;;;24.17;12.93;;;;;;;4.63;69.15;97208.97;4999900;28;20491;-61
2022/12/22 08:32:32;;;;;;;13.43;6.60;;;;;;;4.49;69.74;97191.94;5004891;28;20061;-60
2022/12/22 08:34:59;;;;;;;11.45;5.43;;;;;;;4.68;69.79;97200.56;5004946;28;20085;-54
2022/12/22 08:37:31;;;;;;;16.13;7.95;;;;;;;4.82;70.00;97210.53;5003896;28;20054;-63
2022/12/22 08:40:02;;;;;;;16.45;9.55;;;;;;;4.89;70.36;97183.38;4988027;28;20440;-55
2022/12/22 08:42:30;;;;;;;24.88;14.43;;;;;;;5.22;70.00;97198.06;4992937;28;20057;-57
2022/12/22 08:44:56;;;;;;;15.73;8.65;;;;;;;5.10;69.58;97163.09;4994271;28;20108;-59
2022/12/22 08:47:23;;;;;;;11.68;6.60;;;;;;;4.77;69.61;97104.53;4989631;28;20144;-56
2022/12/22 08:49:50;;;;;;;12.50;7.43;;;;;;;5.35;69.89;97186.03;5005447;28;20531;-55
2022/12/22 08:52:16;;;;;;;20.90;10.18;;;;;;;5.32;70.08;97156.47;5005323;28;20116;-62
2022/12/22 08:54:44;;;;;;;12.90;7.07;;;;;;;5.16;70.70;97150.78;4984779;28;20163;-63
2022/12/22 08:57:11;;;;;;;16.27;9.27;;;;;;;5.58;71.25;97184.59;4995845;28;20057;-58
2022/12/22 08:59:38;;;;;;;14.93;7.43;;;;;;;5.12;73.48;97181.97;4989577;28;20564;-58
2022/12/22 09:02:04;;;;;;;13.35;6.28;;;;;;;5.05;73.50;97176.19;5005424;28;20058;-57
2022/12/22 09:04:32;;;;;;;14.27;7.13;;;;;;;4.68;75.75;97173.16;5000288;28;20057;-54
2022/12/22 09:07:01;;;;;;;12.93;6.88;;;;;;;4.89;75.32;97177.88;5000330;28;20061;-63
2022/12/22 09:09:31;;;;;;;13.15;7.45;;;;;;;5.29;73.97;97166.19;4993953;28;20046;-56
2022/12/22 09:11:59;;;;;;;18.83;7.18;;;;;;;4.90;72.95;97130.13;4992994;28;20130;-55
2022/12/22 09:14:27;;;;;;;16.25;6.70;;;;;;;4.66;75.09;97137.00;4986450;28;20103;-56
2022/12/22 09:16:53;;;;;;;18.45;11.02;;;;;;;4.51;75.68;97090.94;4986082;28;20089;-56
2022/12/22 09:19:20;;;;;;;14.48;6.55;;;;;;;4.95;75.52;97162.88;4992637;28;20056;-54
2022/12/22 09:21:47;;;;;;;15.88;8.52;;;;;;;4.44;75.91;97035.78;4997823;28;20091;-58
2022/12/22 09:24:14;;;;;;;17.92;7.10;;;;;;;4.94;74.49;97071.47;4983915;28;20100;-59
2022/12/22 09:26:41;;;;;;;12.80;7.15;;;;;;;5.10;73.66;97041.50;4984426;28;20050;-56
2022/12/22 09:29:09;;;;;;;14.45;7.05;;;;;;;5.90;72.33;97126.94;4998613;28;20151;-54
2022/12/22 09:31:36;;;;;;;33.88;17.42;;;;;;;6.28;72.22;97132.19;5004696;28;20069;-54
2022/12/22 09:34:02;;;;;;;36.28;17.40;;;;;;;6.54;71.69;97140.97;5004468;28;20882;-54
2022/12/22 09:36:30;;;;;;;35.35;12.63;;;;;;;6.75;70.83;97130.66;5003873;28;20495;-59
2022/12/22 09:38:57;;;;;;;30.70;15.45;;;;;;;6.69;69.17;97085.25;5004745;28;20056;-55
2022/12/22 09:41:33;;;;;;;23.17;11.45;;;;;;;7.28;69.14;97122.16;5004473;28;20116;-60
2022/12/22 09:44:15;;;;;;;13.20;6.43;;;;;;;6.93;67.02;97122.97;5005171;28;20092;-59
2022/12/22 09:46:42;;;;;;;14.68;8.52;;;;;;;6.73;69.78;97116.44;5001081;28;20127;-59
2022/12/22 09:49:14;;;;;;;29.48;20.92;;;;;;;7.02;68.15;97094.16;5003635;28;20084;-58
2022/12/22 09:51:45;;;;;;;11.90;7.30;;;;;;;6.66;63.89;97050.16;4992859;28;20434;-60
2022/12/22 09:54:13;;;;;;;10.82;6.07;;;;;;;6.77;61.63;97084.31;4998660;28;20058;-56
2022/12/22 09:56:39;;;;;;;27.52;17.83;;;;;;;7.25;62.31;97089.78;4984343;28;20078;-58
2022/12/22 09:59:14;;;;;;;9.15;5.50;;;;;;;7.15;58.48;97039.88;4985345;28;20130;-67
2022/12/22 10:01:46;;;;;;;12.88;5.90;;;;;;;7.32;58.38;97101.00;4985692;28;20594;-55
2022/12/22 10:04:37;;;;;;;22.50;11.50;;;;;;;7.69;59.31;97094.25;4995202;28;20065;-56
2022/12/22 10:07:33;;;;;;;14.63;9.10;;;;;;;8.15;58.88;97089.19;4991929;28;20532;-60
2022/12/22 10:10:28;;;;;;;13.70;7.03;;;;;;;8.34;57.57;97083.81;4994533;28;20062;-62
2022/12/22 10:13:00;;;;;;;12.13;6.32;;;;;;;8.63;56.40;97077.88;4985426;28;20046;-58
2022/12/22 10:15:39;;;;;;;11.85;6.20;;;;;;;8.89;53.73;97080.88;4987476;28;20053;-61
2022/12/22 10:18:22;;;;;;;9.77;4.80;;;;;;;8.94;52.85;97072.31;4992803;28;20065;-58
2022/12/22 10:21:10;;;;;;;13.10;7.20;;;;;;;9.18;53.75;97066.56;4999881;28;20495;-55
2022/12/22 10:23:47;;;;;;;14.88;6.40;;;;;;;9.24;52.09;97048.53;5002664;28;20061;-55
2022/12/22 10:26:32;;;;;;;13.35;6.97;;;;;;;9.40;53.14;97057.59;5000472;28;20053;-55
2022/12/22 10:29:04;;;;;;;13.82;8.43;;;;;;;9.48;52.22;97058.53;4989910;28;20092;-54
2022/12/22 10:31:38;;;;;;;34.37;16.50;;;;;;;9.44;52.37;97019.75;5001822;28;20049;-54
2022/12/22 10:34:16;;;;;;;26.08;13.13;;;;;;;9.63;51.45;97050.16;4991755;28;20062;-60
2022/12/22 10:36:48;;;;;;;28.00;12.77;;;;;;;9.72;52.21;97059.03;4993372;28;20050;-62
2022/12/22 10:39:21;;;;;;;19.10;10.07;;;;;;;9.82;51.96;97036.31;5003774;28;20049;-59
2022/12/22 10:41:50;;;;;;;23.15;11.65;;;;;;;9.62;50.47;96998.78;4999755;28;20112;-54
2022/12/22 10:44:27;;;;;;;24.40;11.30;;;;;;;9.59;50.00;96965.53;5002870;28;20085;-59
2022/12/22 10:47:19;;;;;;;18.90;11.07;;;;;;;10.02;50.18;97029.59;5002979;28;20054;-56
2022/12/22 10:49:48;;;;;;;15.93;8.30;;;;;;;9.81;49.58;97007.06;5002037;28;20137;-54
2022/12/22 10:52:17;;;;;;;19.42;11.57;;;;;;;9.77;49.20;97006.19;5004005;28;20144;-54
2022/12/22 10:54:49;;;;;;;16.10;9.38;;;;;;;9.64;49.16;96979.06;4984440;28;20445;-54
2022/12/22 10:57:16;;;;;;;17.05;10.07;;;;;;;9.62;49.57;97015.38;4985187;28;20077;-54
2022/12/22 10:59:45;;;;;;;11.35;5.18;;;;;;;8.93;49.61;97015.47;4991228;28;20591;-57
2022/12/22 11:02:32;;;;;;;6.75;4.43;;;;;;;8.87;50.40;97014.13;4983316;28;20116;-59
2022/12/22 11:05:10;;;;;;;7.60;4.25;;;;;;;8.38;48.92;96953.03;4984565;28;20050;-58
2022/12/22 11:07:42;;;;;;;6.38;4.22;;;;;;;8.40;49.13;96938.88;4984276;28;20065;-52
2022/12/22 11:10:31;;;;;;;6.25;3.90;;;;;;;8.61;48.54;96942.13;4984378;28;20122;-57
2022/12/22 11:13:08;;;;;;;8.25;5.07;;;;;;;9.28;47.55;97005.19;4982763;28;20058;-58
2022/12/22 11:15:48;;;;;;;10.38;6.18;;;;;;;9.43;47.38;96989.69;4983965;28;20149;-55
2022/12/22 11:18:34;;;;;;;9.27;4.40;;;;;;;9.56;46.55;96994.72;4982646;28;20093;-53
2022/12/22 11:21:24;;;;;;;10.90;4.40;;;;;;;9.11;46.34;96917.19;4984188;28;20112;-53
2022/12/22 11:24:10;;;;;;;11.80;5.10;;;;;;;9.64;47.18;96966.00;4984396;28;20050;-53
2022/12/22 11:27:27;;;;;;;8.55;4.80;;;;;;;9.71;47.20;96968.94;4982801;28;20078;-54
2022/12/22 11:30:03;;;;;;;7.57;4.47;;;;;;;9.89;46.66;96970.06;4978263;28;20492;-56
2022/12/22 11:32:46;;;;;;;9.98;4.72;;;;;;;9.92;46.52;96969.34;4984233;28;20068;-53
2022/12/22 11:35:45;;;;;;;7.03;3.72;;;;;;;9.86;46.28;96970.81;4984986;28;20159;-61
2022/12/22 11:38:51;;;;;;;6.97;3.90;;;;;;;9.82;46.07;96975.47;4984182;28;20532;-54
2022/12/22 11:41:37;;;;;;;6.00;3.78;;;;;;;9.77;46.60;96972.22;4984002;28;20050;-55
2022/12/22 11:44:15;;;;;;;6.28;4.18;;;;;;;9.97;46.38;96960.72;4990749;28;20548;-61
2022/12/22 11:47:01;;;;;;;6.88;3.97;;;;;;;9.76;46.38;96963.09;5001244;28;21177;-55
2022/12/22 11:49:39;;;;;;;6.75;3.92;;;;;;;9.40;47.90;96951.72;4983893;28;20084;-59
2022/12/22 11:52:05;;;;;;;16.33;8.68;;;;;;;9.79;48.38;96959.59;4983625;28;20505;-60
2022/12/22 11:54:43;;;;;;;15.73;9.73;;;;;;;9.83;48.87;96960.44;5001738;28;20132;-57
2022/12/22 11:57:19;;;;;;;18.92;9.13;;;;;;;9.49;49.20;96961.41;4986353;28;20137;-59
2022/12/22 11:59:58;;;;;;;8.05;5.03;;;;;;;9.64;48.69;96954.94;4982311;28;20112;-57
2022/12/22 12:02:52;;;;;;;6.72;4.38;;;;;;;9.75;49.05;96958.75;4985216;28;20116;-53
2022/12/22 12:06:13;;;;;;;9.35;5.35;;;;;;;9.91;49.07;96945.59;4987299;28;20058;-59
2022/12/22 12:08:54;;;;;;;8.93;5.00;;;;;;;10.01;48.52;96944.97;4983610;28;20572;-53
2022/12/22 12:11:51;;;;;;;7.05;4.30;;;;;;;9.51;49.12;96948.00;4987052;28;20527;-55
2022/12/22 12:14:37;;;;;;;13.18;5.95;;;;;;;9.76;49.76;96938.22;4985034;28;20453;-59
2022/12/22 12:17:33;;;;;;;7.93;5.07;;;;;;;9.67;49.25;96940.44;4986986;28;20109;-59
2022/12/22 12:20:02;;;;;;;8.68;4.40;;;;;;;9.43;49.67;96939.94;4986575;28;20097;-59
2022/12/22 12:22:52;;;;;;;7.82;4.40;;;;;;;9.16;49.27;96886.50;4985119;28;20062;-54
2022/12/22 12:25:26;;;;;;;10.88;4.50;;;;;;;9.62;48.86;96937.16;4986112;28;20050;-59
2022/12/22 12:28:15;;;;;;;7.45;4.20;;;;;;;9.38;49.45;96932.75;4986964;28;20182;-52
2022/12/22 12:30:56;;;;;;;7.00;3.72;;;;;;;9.37;49.25;96925.63;4986813;28;20060;-54
2022/12/22 12:33:41;;;;;;;6.18;4.00;;;;;;;9.29;48.93;96928.59;4987013;28;20521;-54
2022/12/22 12:36:28;;;;;;;6.57;4.43;;;;;;;9.54;48.39;96935.41;4985800;28;20537;-56
2022/12/22 12:39:13;;;;;;;8.48;4.75;;;;;;;9.64;48.55;96938.38;4986887;28;20042;-56
2022/12/22 12:41:45;;;;;;;6.95;4.00;;;;;;;9.34;49.43;96920.81;4985728;28;20144;-57
2022/12/22 12:44:15;;;;;;;10.43;5.50;;;;;;;9.07;48.33;96900.53;4986412;28;20054;-53
2022/12/22 12:46:51;;;;;;;7.82;3.33;;;;;;;9.15;48.59;96956.75;4986166;28;20696;-55
2022/12/22 12:49:33;;;;;;;6.45;3.53;;;;;;;9.08;49.20;96951.06;4986355;28;20096;-55
2022/12/22 12:52:07;;;;;;;8.65;5.15;;;;;;;9.16;49.21;96955.59;4987471;28;20061;-59
2022/12/22 12:54:33;;;;;;;7.57;4.35;;;;;;;9.24;48.79;96949.03;4996538;28;20058;-54
2022/12/22 12:57:06;;;;;;;8.82;5.18;;;;;;;9.15;48.47;96954.78;4997645;28;20098;-54
2022/12/22 12:59:38;;;;;;;8.43;4.67;;;;;;;9.16;48.73;96958.34;4984756;28;20112;-60
2022/12/22 13:02:27;;;;;;;8.43;4.93;;;;;;;9.09;48.72;96952.66;4989090;28;20809;-61
2022/12/22 13:05:25;;;;;;;8.57;5.10;;;;;;;8.59;49.15;96879.00;4993324;28;20058;-54
2022/12/22 13:08:18;;;;;;;11.40;4.50;;;;;;;9.11;49.57;96939.28;4993817;28;20089;-55
2022/12/22 13:10:54;;;;;;;9.85;5.70;;;;;;;8.92;50.32;96955.84;4995539;28;20054;-58
2022/12/22 13:13:20;;;;;;;8.57;4.57;;;;;;;9.08;50.09;96954.66;4984272;28;20393;-55
2022/12/22 13:15:59;;;;;;;9.88;5.13;;;;;;;8.83;50.53;96946.97;4988839;28;20046;-56
2022/12/22 13:18:29;;;;;;;6.85;4.30;;;;;;;8.83;51.03;96949.75;4992091;28;20501;-60
2022/12/22 13:21:21;;;;;;;12.85;5.80;;;;;;;8.79;50.55;96951.59;5001401;28;20136;-53
2022/12/22 13:24:21;;;;;;;8.25;5.30;;;;;;;8.68;50.37;96939.53;4993090;28;20050;-56
2022/12/22 13:26:54;;;;;;;9.93;5.35;;;;;;;8.65;50.84;96926.44;4995932;28;20065;-53
2022/12/22 13:29:21;;;;;;;9.23;5.22;;;;;;;8.87;50.76;96953.38;4990630;28;20055;-53
2022/12/22 13:31:53;;;;;;;11.20;6.47;;;;;;;9.01;50.25;96939.84;4994509;28;20123;-54
2022/12/22 13:34:26;;;;;;;18.38;11.90;;;;;;;8.80;50.71;96944.94;4995640;28;20137;-53
2022/12/22 13:36:53;;;;;;;23.70;14.35;;;;;;;8.70;50.80;96923.41;4995921;28;20600;-59
2022/12/22 13:39:20;;;;;;;14.05;7.07;;;;;;;8.70;50.45;96943.53;5004348;28;20104;-55
2022/12/22 13:41:49;;;;;;;11.48;6.68;;;;;;;8.70;50.25;96939.97;4995632;28;20097;-56
2022/12/22 13:44:34;;;;;;;12.50;7.90;;;;;;;8.43;51.22;96902.28;4991116;28;20134;-55
2022/12/22 13:47:05;;;;;;;11.13;8.32;;;;;;;8.60;51.82;96929.50;4988810;28;20046;-59
2022/12/22 13:49:33;;;;;;;12.50;8.20;;;;;;;8.37;51.62;96889.94;4993410;28;20053;-58
2022/12/22 13:52:20;;;;;;;14.65;7.80;;;;;;;8.59;51.98;96927.88;4988546;28;20072;-60
2022/12/22 13:54:46;;;;;;;16.35;7.88;;;;;;;8.54;52.33;96936.44;5001403;28;20115;-61
2022/12/22 13:57:19;;;;;;;17.58;8.15;;;;;;;8.12;52.74;96897.59;5001277;28;20085;-59
2022/12/22 13:59:49;;;;;;;17.90;7.88;;;;;;;8.36;53.11;96946.28;4992494;28;20065;-55
2022/12/22 14:02:18;;;;;;;12.95;7.60;;;;;;;8.22;53.83;96937.66;4995521;28;20105;-60
2022/12/22 14:05:07;;;;;;;14.90;7.75;;;;;;;8.40;53.61;96936.94;4988498;28;20055;-56
2022/12/22 14:07:33;;;;;;;19.17;9.10;;;;;;;7.73;54.26;96852.53;4999936;28;20049;-61
2022/12/22 14:10:01;;;;;;;17.48;8.77;;;;;;;8.29;54.25;96929.56;5004338;28;20850;-60
2022/12/22 14:12:38;;;;;;;18.95;9.82;;;;;;;8.19;54.08;96903.28;5000093;28;20046;-54
2022/12/22 14:15:11;;;;;;;17.90;9.07;;;;;;;8.39;53.50;96929.00;4998152;28;20050;-55
2022/12/22 14:17:39;;;;;;;21.25;9.63;;;;;;;8.33;54.46;96927.69;4987831;28;20161;-56
2022/12/22 14:20:41;;;;;;;18.13;10.60;;;;;;;8.26;54.75;96933.84;4991350;28;20050;-58
2022/12/22 14:23:14;;;;;;;18.58;10.98;;;;;;;8.39;54.84;96934.53;4985153;28;20062;-54
2022/12/22 14:25:42;;;;;;;24.45;10.75;;;;;;;8.15;55.28;96918.16;4984307;28;20276;-61
2022/12/22 14:28:26;;;;;;;22.73;10.75;;;;;;;7.57;55.68;96860.00;4996618;28;20615;-55
2022/12/22 14:30:56;;;;;;;22.20;11.95;;;;;;;8.07;55.63;96943.97;5003243;28;20488;-64
2022/12/22 14:33:25;;;;;;;24.08;12.60;;;;;;;7.92;56.24;96942.78;4998569;28;20069;-59
2022/12/22 14:36:17;;;;;;;52.20;25.88;;;;;;;7.75;57.51;96940.38;5001018;28;20159;-56
2022/12/22 14:38:50;;;;;;;83.47;38.75;;;;;;;7.56;58.63;96943.84;5003484;28;20440;-61
2022/12/22 14:41:42;;;;;;;161.50;76.55;;;;;;;7.40;60.06;96937.50;4990375;28;20058;-55
2022/12/22 14:44:19;;;;;;;180.75;88.50;;;;;;;7.20;61.43;96938.53;4985608;28;20042;-54
2022/12/22 14:47:18;;;;;;;141.75;69.45;;;;;;;7.01;61.60;96935.59;4986198;28;20050;-56
2022/12/22 14:49:51;;;;;;;137.85;66.50;;;;;;;6.82;62.41;96935.44;4991666;28;20642;-56
2022/12/22 14:52:34;;;;;;;142.98;72.35;;;;;;;6.27;63.33;96898.75;4993139;28;20107;-55
2022/12/22 14:55:03;;;;;;;127.88;67.25;;;;;;;6.48;68.09;96937.94;4994617;28;20061;-57
2022/12/22 14:57:41;;;;;;;123.20;58.58;;;;;;;6.26;65.72;96946.66;4987618;28;20164;-63
2022/12/22 15:00:30;;;;;;;167.93;75.05;;;;;;;6.14;65.61;96944.72;5001880;28;20315;-54
2022/12/22 15:03:01;;;;;;;128.02;59.53;;;;;;;6.05;65.98;96999.03;4999947;28;20105;-53
2022/12/22 15:05:37;;;;;;;139.82;64.13;;;;;;;5.30;67.05;96851.19;4996172;28;20069;-64
2022/12/22 15:08:06;;;;;;;93.07;41.80;;;;;;;4.06;67.41;96673.28;4982421;28;20054;-60
2022/12/22 15:10:43;;;;;;;69.45;33.75;;;;;;;5.59;68.08;96938.91;4990557;28;20045;-60
2022/12/22 15:13:21;;;;;;;66.32;25.88;;;;;;;5.36;68.59;96937.72;4991520;28;20038;-54
2022/12/22 15:15:51;;;;;;;61.63;24.00;;;;;;;5.24;69.47;96943.16;5001502;28;20062;-61
2022/12/22 15:18:23;;;;;;;49.78;21.38;;;;;;;5.04;70.75;96982.44;4984879;28;20120;-53
2022/12/22 15:20:49;;;;;;;48.75;20.77;;;;;;;4.85;71.08;96943.72;4984707;28;20496;-61
2022/12/22 15:23:16;;;;;;;47.80;20.10;;;;;;;4.76;71.52;96946.50;4984462;28;20557;-61
2022/12/22 15:25:44;;;;;;;47.65;23.63;;;;;;;4.58;71.92;96936.81;4995676;28;20049;-61